Time;durP1;ratioP1;P1;durP2;ratioP2;P2;SDS_P1;SDS_P2;PMS_P1;PMS_P2;Temp;Humidity;BMP_temperature;BMP_pressure;BME280_temperature;BME280_humidity;BME280_pressure;Samples;Min_cycle;Max_cycle;Signal;HPM_P1;HPM_P2
2023/07/31 00:00:52;;;;;;;84.90;79.70;;;;;;;17.37;89.80;99638.95;1824062;78;25435;-69
2023/07/31 00:03:23;;;;;;;85.57;80.28;;;;;;;17.33;89.66;99644.94;1823414;78;26528;-69
2023/07/31 00:05:49;;;;;;;86.65;80.83;;;;;;;17.28;89.65;99645.26;1822983;78;25593;-69
2023/07/31 00:08:15;;;;;;;86.20;80.77;;;;;;;17.25;89.80;99636.45;1823385;78;29765;-67
2023/07/31 00:10:41;;;;;;;88.15;81.92;;;;;;;17.23;89.78;99640.11;1824037;78;25443;-68
2023/07/31 00:13:07;;;;;;;92.08;86.25;;;;;;;17.20;89.79;99631.28;1824015;78;25470;-69
2023/07/31 00:15:33;;;;;;;88.33;82.57;;;;;;;17.18;89.80;99633.05;1823945;78;27493;-68
2023/07/31 00:18:00;;;;;;;87.90;82.22;;;;;;;17.15;90.02;99632.41;1824900;78;25748;-68
2023/07/31 00:32:27;;;;;;;7.72;6.10;;;;;;;17.05;90.98;99637.15;1818748;77;25499;-72
2023/07/31 00:34:53;;;;;;;8.50;6.22;;;;;;;16.94;90.98;99639.70;1802279;79;25128;-72
2023/07/31 00:37:20;;;;;;;7.28;5.50;;;;;;;16.93;90.91;99646.34;1800761;79;27560;-72
2023/07/31 00:39:46;;;;;;;38.95;36.38;;;;;;;16.89;90.95;99638.09;1800681;78;25762;-75
2023/07/31 00:42:12;;;;;;;85.28;80.17;;;;;;;16.84;90.67;99634.31;1800723;79;25509;-75
2023/07/31 00:44:38;;;;;;;59.42;55.73;;;;;;;16.80;91.04;99641.06;1799993;79;25606;-72
2023/07/31 00:47:05;;;;;;;66.87;62.73;;;;;;;16.78;91.22;99643.34;1799317;79;25675;-73
2023/07/31 00:49:33;;;;;;;83.45;78.50;;;;;;;16.76;91.24;99641.56;1771772;79;28073;-73
2023/07/31 00:51:59;;;;;;;13.43;12.80;;;;;;;16.72;91.42;99639.37;1800777;79;25361;-73
2023/07/31 00:54:26;;;;;;;61.90;58.00;;;;;;;16.73;91.85;99637.42;1800928;79;25431;-73
2023/07/31 00:56:54;;;;;;;83.78;78.80;;;;;;;16.72;91.86;99644.02;1800758;79;25592;-74
2023/07/31 00:59:20;;;;;;;79.80;74.95;;;;;;;16.72;92.34;99641.30;1801032;79;25529;-74
2023/07/31 01:01:47;;;;;;;81.75;76.87;;;;;;;16.70;92.50;99640.32;1800648;79;28006;-74
2023/07/31 01:04:17;;;;;;;83.05;78.05;;;;;;;16.69;92.26;99632.49;1800642;79;25427;-74
2023/07/31 01:07:16;;;;;;;79.90;75.05;;;;;;;16.50;92.41;99600.58;1771219;79;25470;-74
2023/07/31 01:09:55;;;;;;;8.75;5.10;;;;;;;16.65;91.99;99629.67;1771216;79;25440;-74
2023/07/31 01:12:24;;;;;;;87.78;82.33;;;;;;;16.66;92.23;99638.67;1798458;79;25455;-74
2023/07/31 01:14:53;;;;;;;;;;;;;;;16.63;92.72;99637.45;1803399;79;27552;-74
2023/07/31 01:17:20;;;;;;;84.42;79.15;;;;;;;16.61;92.84;99632.94;1799302;79;25455;-74
2023/07/31 01:19:47;;;;;;;86.55;81.32;;;;;;;16.58;92.51;99639.94;1800727;79;25509;-74
2023/07/31 01:22:34;;;;;;;87.78;82.40;;;;;;;16.55;92.68;99645.31;1800598;79;25573;-74
2023/07/31 01:25:38;;;;;;;88.30;82.85;;;;;;;16.52;92.27;99647.42;1799727;79;25514;-75
2023/07/31 01:28:15;;;;;;;86.82;81.47;;;;;;;16.49;92.91;99649.52;1704032;83;27462;-74
2023/07/31 01:30:46;;;;;;;85.32;80.22;;;;;;;16.46;92.93;99648.28;1703893;83;25787;-74
2023/07/31 01:33:12;;;;;;;87.70;82.40;;;;;;;16.42;92.46;99646.09;1703612;84;25700;-73
2023/07/31 01:35:42;;;;;;;87.85;82.10;;;;;;;16.40;92.58;99650.54;1705983;84;25528;-73
2023/07/31 01:38:08;;;;;;;35.65;33.40;;;;;;;16.37;92.60;99651.27;1703633;84;25448;-72
2023/07/31 01:40:34;;;;;;;10.65;4.00;;;;;;;16.37;93.07;99651.84;1703593;84;28075;-73
2023/07/31 01:43:01;;;;;;;86.92;81.67;;;;;;;16.35;93.29;99649.48;1703553;84;25500;-73
2023/07/31 01:45:27;;;;;;;50.00;46.92;;;;;;;16.33;93.67;99649.06;1703579;84;25665;-73
2023/07/31 01:47:54;;;;;;;7.67;6.10;;;;;;;16.31;93.10;99645.10;1703539;84;25634;-72
2023/07/31 01:50:22;;;;;;;4.65;4.22;;;;;;;16.28;92.84;99651.28;1703675;84;25647;-73
2023/07/31 01:52:48;;;;;;;5.37;4.40;;;;;;;16.21;92.69;99649.24;1703593;84;28242;-73
2023/07/31 01:55:14;;;;;;;87.27;81.90;;;;;;;16.22;92.66;99652.16;1679803;84;25466;-73
2023/07/31 01:57:40;;;;;;;89.20;83.58;;;;;;;16.18;93.20;99650.73;1703597;84;25598;-73
2023/07/31 02:00:08;;;;;;;89.37;83.90;;;;;;;16.15;93.32;99651.45;1703568;84;25602;-73
2023/07/31 02:02:34;;;;;;;86.97;81.60;;;;;;;16.13;93.47;99657.86;1703608;84;25434;-73
2023/07/31 02:05:00;;;;;;;86.63;81.08;;;;;;;16.10;93.21;99663.25;1755093;79;27462;-73
2023/07/31 02:07:26;;;;;;;95.97;90.17;;;;;;;16.07;93.57;99657.92;1800030;79;25355;-73
2023/07/31 02:09:53;;;;;;;86.57;81.22;;;;;;;16.05;93.64;99661.02;1800080;79;25605;-73
2023/07/31 02:12:20;;;;;;;86.05;80.67;;;;;;;16.01;93.65;99662.89;1800015;79;25424;-73
2023/07/31 02:14:46;;;;;;;85.85;79.77;;;;;;;16.00;94.06;99668.71;1770780;79;25170;-73
2023/07/31 02:17:12;;;;;;;84.55;78.78;;;;;;;15.95;93.89;99662.97;1770605;79;27388;-73
2023/07/31 02:19:38;;;;;;;79.22;74.42;;;;;;;15.92;93.99;99662.34;1799953;79;25526;-73
2023/07/31 02:22:05;;;;;;;4.35;3.27;;;;;;;15.91;94.13;99666.79;1770630;79;25445;-73
2023/07/31 02:24:31;;;;;;;5.05;4.05;;;;;;;15.87;94.35;99664.00;1800071;79;25441;-73
2023/07/31 02:26:58;;;;;;;5.83;5.30;;;;;;;15.84;94.33;99671.53;1797017;79;25467;-73
2023/07/31 02:29:24;;;;;;;8.73;7.33;;;;;;;15.83;94.69;99671.30;1800013;79;28257;-73
2023/07/31 02:31:50;;;;;;;9.08;7.67;;;;;;;15.80;94.62;99671.46;1807228;79;25377;-72
2023/07/31 02:34:16;;;;;;;7.03;6.40;;;;;;;15.79;94.75;99668.51;1814790;79;25376;-73
2023/07/31 02:36:43;;;;;;;10.50;9.48;;;;;;;15.78;94.68;99671.03;1814771;79;25387;-74
2023/07/31 02:39:09;;;;;;;86.53;81.28;;;;;;;15.76;94.72;99676.03;1814884;79;25594;-74
2023/07/31 02:41:35;;;;;;;87.20;81.78;;;;;;;15.74;95.10;99672.86;1791399;79;27522;-74
2023/07/31 02:44:01;;;;;;;87.22;81.85;;;;;;;15.71;94.99;99670.84;1791972;79;25593;-74
2023/07/31 02:46:27;;;;;;;87.20;81.78;;;;;;;15.69;95.19;99678.59;1814821;79;25536;-74
2023/07/31 02:48:53;;;;;;;90.42;84.83;;;;;;;15.66;95.48;99672.48;1814822;79;25658;-74
2023/07/31 02:51:21;;;;;;;87.65;82.35;;;;;;;15.66;95.71;99671.94;1814889;79;25447;-74
2023/07/31 02:53:49;;;;;;;85.22;80.15;;;;;;;15.66;96.00;99671.94;1814845;79;28065;-74
2023/07/31 02:56:15;;;;;;;84.62;79.35;;;;;;;15.66;96.14;99675.22;1814763;79;25653;-74
2023/07/31 02:58:42;;;;;;;84.03;78.83;;;;;;;15.65;96.17;99685.34;1814833;79;25549;-74
2023/07/31 03:01:08;;;;;;;87.62;82.37;;;;;;;15.65;96.10;99691.38;1814717;79;25635;-74
2023/07/31 03:03:34;;;;;;;85.85;80.75;;;;;;;15.66;96.57;99684.75;1814867;79;25605;-74
2023/07/31 03:06:01;;;;;;;87.27;81.75;;;;;;;15.69;96.92;99689.50;1814801;79;28032;-74
2023/07/31 03:08:27;;;;;;;84.90;79.70;;;;;;;15.69;97.02;99676.65;1814772;79;25546;-75
2023/07/31 03:10:53;;;;;;;85.67;80.28;;;;;;;15.72;97.20;99677.11;1818914;78;25458;-74
2023/07/31 03:13:19;;;;;;;85.38;79.67;;;;;;;15.74;97.39;99682.98;1814719;79;25507;-74
2023/07/31 03:15:45;;;;;;;87.22;81.70;;;;;;;15.76;97.51;99683.44;1814871;79;25510;-74
2023/07/31 03:18:12;;;;;;;86.70;81.28;;;;;;;15.78;97.46;99686.03;1814847;79;27668;-74
2023/07/31 03:20:44;;;;;;;87.30;81.78;;;;;;;15.80;97.68;99693.83;1814677;78;25430;-74
2023/07/31 03:23:10;;;;;;;85.22;80.10;;;;;;;15.83;97.70;99691.20;1814692;79;25388;-75
2023/07/31 03:25:37;;;;;;;86.35;80.77;;;;;;;15.85;97.90;99682.64;1814744;79;25709;-72
2023/07/31 03:28:03;;;;;;;87.75;82.15;;;;;;;15.89;97.91;99681.37;1814830;78;25617;-73
2023/07/31 03:30:29;;;;;;;84.37;79.05;;;;;;;15.92;97.98;99681.44;1792044;79;27465;-73
2023/07/31 03:32:57;;;;;;;86.50;81.05;;;;;;;15.96;98.39;99682.28;1775144;79;25621;-74
2023/07/31 03:35:23;;;;;;;88.62;83.03;;;;;;;16.00;98.44;99685.08;1800020;79;25395;-74
2023/07/31 03:37:49;;;;;;;84.13;78.85;;;;;;;16.02;98.85;99682.22;1799922;79;25855;-74
2023/07/31 03:40:15;;;;;;;84.15;78.87;;;;;;;16.08;98.84;99683.29;1800052;79;25517;-74
2023/07/31 03:42:43;;;;;;;85.45;80.25;;;;;;;16.12;98.77;99687.64;1799998;79;27461;-74
2023/07/31 03:45:10;;;;;;;87.67;81.92;;;;;;;16.14;98.85;99696.28;1800005;78;25810;-74
2023/07/31 03:47:36;;;;;;;83.25;78.28;;;;;;;16.17;98.96;99692.80;1799991;79;25437;-74
2023/07/31 03:50:03;;;;;;;85.28;80.10;;;;;;;16.21;99.09;99695.04;1770693;79;25759;-74
2023/07/31 03:52:29;;;;;;;84.80;79.75;;;;;;;16.25;99.23;99699.20;1770639;79;25503;-74
2023/07/31 03:54:56;;;;;;;87.03;81.63;;;;;;;16.29;99.29;99699.26;1797019;79;28202;-74
2023/07/31 03:57:23;;;;;;;87.37;81.70;;;;;;;16.32;99.04;99697.95;1799914;79;25763;-74
2023/07/31 03:59:50;;;;;;;85.07;79.85;;;;;;;16.35;98.89;99702.70;1800168;79;25510;-74
2023/07/31 04:02:18;;;;;;;83.87;78.67;;;;;;;16.38;98.99;99703.34;1800210;79;25368;-74
2023/07/31 04:04:44;;;;;;;26.25;24.20;;;;;;;16.44;99.05;99702.45;1770753;79;25375;-72
2023/07/31 04:07:10;;;;;;;14.58;12.45;;;;;;;16.48;99.22;99707.42;1800005;79;28061;-73
2023/07/31 04:09:36;;;;;;;14.98;13.55;;;;;;;16.52;99.23;99712.94;1799878;79;25378;-74
2023/07/31 04:12:03;;;;;;;40.35;37.83;;;;;;;16.55;99.18;99721.75;1799962;79;25553;-73
2023/07/31 04:14:29;;;;;;;84.92;79.50;;;;;;;16.57;99.23;99714.00;1799939;79;25372;-72
2023/07/31 04:16:56;;;;;;;82.42;77.37;;;;;;;16.59;99.32;99716.57;1800079;79;25378;-72
2023/07/31 04:19:22;;;;;;;83.05;77.90;;;;;;;16.60;98.91;99708.60;1800022;79;27494;-72
2023/07/31 04:21:48;;;;;;;84.83;79.63;;;;;;;16.63;98.99;99713.90;1799991;79;30612;-72
2023/07/31 04:24:14;;;;;;;86.25;80.97;;;;;;;16.65;98.82;99711.59;1800082;79;25383;-72
2023/07/31 04:26:41;;;;;;;86.32;80.97;;;;;;;16.67;98.23;99720.23;1800140;79;25435;-73
2023/07/31 04:29:07;;;;;;;88.35;82.97;;;;;;;16.69;98.19;99723.96;1800290;79;25534;-73
2023/07/31 04:31:34;;;;;;;82.57;77.53;;;;;;;16.70;97.84;99721.42;1769040;79;27379;-73
2023/07/31 04:34:00;;;;;;;85.35;80.00;;;;;;;16.70;97.84;99722.23;1784159;80;25709;-72
2023/07/31 04:36:26;;;;;;;87.02;81.65;;;;;;;16.72;97.54;99728.11;1784015;80;25381;-72
2023/07/31 04:38:52;;;;;;;82.25;77.30;;;;;;;16.71;97.12;99730.62;1784011;80;25610;-72
2023/07/31 04:41:18;;;;;;;84.75;79.72;;;;;;;16.72;97.04;99739.03;1784120;80;31047;-73
2023/07/31 04:43:44;;;;;;;84.30;79.03;;;;;;;16.74;97.08;99737.31;1784102;80;27457;-72
2023/07/31 04:46:11;;;;;;;88.22;82.65;;;;;;;16.73;96.66;99736.50;1783888;80;25524;-72
2023/07/31 04:48:37;;;;;;;85.40;78.37;;;;;;;16.76;97.11;99743.97;1783983;80;25546;-69
2023/07/31 04:51:03;;;;;;;86.67;80.92;;;;;;;16.78;97.08;99744.98;1783927;80;25487;-69
2023/07/31 04:53:29;;;;;;;84.45;79.12;;;;;;;16.80;96.68;99748.94;1814379;79;25396;-71
2023/07/31 04:55:56;;;;;;;84.30;79.32;;;;;;;16.83;96.68;99744.67;1798035;79;27505;-71
2023/07/31 04:58:22;;;;;;;86.15;81.05;;;;;;;16.85;96.66;99742.98;1761573;80;25578;-73
2023/07/31 05:00:48;;;;;;;85.17;79.47;;;;;;;16.88;96.62;99739.52;1814487;79;25541;-73
2023/07/31 05:03:14;;;;;;;87.80;82.33;;;;;;;16.90;96.47;99739.35;1798209;79;25598;-75
2023/07/31 05:05:40;;;;;;;83.22;77.95;;;;;;;16.92;95.67;99741.72;1814890;79;25427;-78
2023/07/31 05:08:06;;;;;;;30.82;28.35;;;;;;;16.94;95.86;99740.22;1798098;79;27483;-73
2023/07/31 05:10:33;;;;;;;11.45;8.15;;;;;;;16.99;95.61;99750.03;1814468;79;25412;-71
2023/07/31 05:12:59;;;;;;;10.63;9.53;;;;;;;16.99;94.94;99745.38;1798117;79;25369;-72
2023/07/31 05:15:25;;;;;;;20.00;18.07;;;;;;;17.02;94.98;99749.30;1814544;79;25958;-72
2023/07/31 05:17:51;;;;;;;18.73;17.07;;;;;;;17.03;94.98;99746.80;1798010;79;25541;-72
2023/07/31 05:20:17;;;;;;;43.23;40.45;;;;;;;17.05;95.05;99745.84;1814627;79;27465;-72
2023/07/31 05:22:43;;;;;;;82.90;77.42;;;;;;;17.06;94.52;99752.90;1798042;79;25639;-72
2023/07/31 05:25:09;;;;;;;87.00;81.65;;;;;;;17.08;94.66;99753.91;1814712;79;25514;-72
2023/07/31 05:27:36;;;;;;;87.08;81.57;;;;;;;17.07;94.32;99754.45;1773343;79;25508;-70
2023/07/31 05:30:02;;;;;;;89.85;84.32;;;;;;;17.10;94.90;99751.59;1814823;79;25583;-71
2023/07/31 05:32:30;;;;;;;85.40;79.75;;;;;;;17.13;94.75;99747.54;1798051;78;27433;-71
2023/07/31 05:34:56;;;;;;;85.75;80.25;;;;;;;17.17;95.11;99747.59;1814462;79;25711;-71
2023/07/31 05:37:23;;;;;;;84.47;79.35;;;;;;;17.23;94.78;99748.06;1798055;79;25564;-71
2023/07/31 05:39:50;;;;;;;18.23;16.65;;;;;;;17.32;95.69;99757.59;1814500;79;26106;-71
2023/07/31 05:42:16;;;;;;;15.08;13.53;;;;;;;17.42;96.22;99759.47;1798044;79;25613;-71
2023/07/31 05:44:43;;;;;;;15.15;13.70;;;;;;;17.50;96.53;99757.86;1814539;79;28100;-71
2023/07/31 05:47:09;;;;;;;16.60;15.10;;;;;;;17.58;95.99;99754.63;1773062;79;25566;-71
2023/07/31 05:49:36;;;;;;;14.55;13.30;;;;;;;17.61;95.11;99758.00;1814537;79;25550;-71
2023/07/31 05:52:02;;;;;;;19.73;18.32;;;;;;;17.71;94.82;99766.94;1797959;79;25456;-71
2023/07/31 05:54:28;;;;;;;20.43;18.62;;;;;;;17.73;93.73;99762.47;1814580;79;25542;-72
2023/07/31 05:56:55;;;;;;;22.95;20.75;;;;;;;17.78;93.59;99767.61;1798109;79;27477;-71
2023/07/31 05:59:21;;;;;;;63.50;59.42;;;;;;;17.81;92.81;99768.25;1814464;79;25190;-71
2023/07/31 06:01:47;;;;;;;64.25;60.38;;;;;;;17.86;92.69;99776.69;1798045;79;25407;-71
2023/07/31 06:04:13;;;;;;;46.33;43.45;;;;;;;17.87;92.00;99773.61;1814513;79;25481;-72
2023/07/31 06:06:39;;;;;;;85.50;80.50;;;;;;;17.91;91.46;99781.86;1798117;79;25392;-74
2023/07/31 06:09:06;;;;;;;88.22;82.82;;;;;;;17.92;91.38;99777.39;1814587;79;27499;-71
2023/07/31 06:11:33;;;;;;;86.00;80.97;;;;;;;17.98;91.82;99785.27;1797953;79;25794;-72
2023/07/31 06:13:59;;;;;;;29.57;27.58;;;;;;;18.05;92.01;99786.17;1814528;79;25372;-71
2023/07/31 06:16:27;;;;;;;75.87;71.12;;;;;;;18.10;91.23;99785.06;1797998;79;25636;-72
2023/07/31 06:18:53;;;;;;;85.65;80.32;;;;;;;18.14;90.48;99791.36;1814593;79;25361;-73
2023/07/31 06:21:19;;;;;;;82.90;77.62;;;;;;;18.20;89.88;99791.25;1797997;79;27539;-72
2023/07/31 06:23:45;;;;;;;84.58;79.40;;;;;;;18.23;89.41;99794.58;1814466;79;25598;-72
2023/07/31 06:26:11;;;;;;;35.25;32.65;;;;;;;18.31;89.47;99790.58;1798051;79;25530;-72
2023/07/31 06:28:37;;;;;;;83.58;78.47;;;;;;;18.39;89.37;99796.32;1814523;79;25507;-71
2023/07/31 06:31:03;;;;;;;85.77;80.67;;;;;;;18.42;88.10;99792.84;1798012;79;25606;-71
2023/07/31 06:33:30;;;;;;;81.92;76.82;;;;;;;18.45;88.68;99794.84;1825366;78;27445;-71
2023/07/31 06:35:56;;;;;;;85.12;80.05;;;;;;;18.50;88.25;99790.98;1825640;78;25402;-72
2023/07/31 06:38:26;;;;;;;84.35;79.40;;;;;;;18.53;88.23;99789.65;1825763;78;25192;-71
2023/07/31 06:40:53;;;;;;;82.70;77.58;;;;;;;18.56;87.56;99793.02;1825726;78;25431;-71
2023/07/31 06:43:19;;;;;;;30.08;27.55;;;;;;;18.59;88.15;99792.27;1800135;78;25465;-71
2023/07/31 06:45:46;;;;;;;7.33;5.30;;;;;;;18.65;87.54;99803.08;1825701;78;27505;-71
2023/07/31 06:48:12;;;;;;;12.73;7.12;;;;;;;18.66;86.93;99800.55;1825663;78;25702;-71
2023/07/31 06:50:38;;;;;;;12.60;11.60;;;;;;;18.70;87.64;99797.07;1825746;78;25508;-71
2023/07/31 06:53:04;;;;;;;53.63;50.50;;;;;;;18.74;87.54;99804.14;1825675;78;26080;-71
2023/07/31 06:55:31;;;;;;;83.40;78.45;;;;;;;18.76;86.83;99808.69;1825755;78;25597;-72
2023/07/31 06:57:57;;;;;;;82.95;78.02;;;;;;;18.77;86.79;99810.83;1825767;78;27512;-72
2023/07/31 07:00:24;;;;;;;83.90;78.92;;;;;;;18.74;85.95;99806.88;1825616;78;25379;-70
2023/07/31 07:02:50;;;;;;;86.28;80.17;;;;;;;18.71;85.95;99813.13;1825684;78;25352;-71
2023/07/31 07:05:18;;;;;;;82.25;77.37;;;;;;;18.72;85.91;99807.84;1825665;78;25543;-71
2023/07/31 07:07:45;;;;;;;83.45;78.52;;;;;;;18.72;85.35;99803.73;1825716;78;25375;-71
2023/07/31 07:10:11;;;;;;;85.10;79.85;;;;;;;18.73;85.51;99808.63;1825715;78;28077;-71
2023/07/31 07:12:38;;;;;;;65.95;61.80;;;;;;;18.71;85.35;99810.39;1825651;78;25483;-71
2023/07/31 07:15:05;;;;;;;13.90;12.30;;;;;;;18.74;85.42;99815.69;1825725;78;25371;-71
2023/07/31 07:17:32;;;;;;;12.03;8.63;;;;;;;18.75;85.23;99813.16;1825660;78;25583;-71
2023/07/31 07:20:00;;;;;;;12.10;10.95;;;;;;;18.77;85.40;99807.50;1825742;78;25522;-71
2023/07/31 07:22:27;;;;;;;13.10;11.97;;;;;;;18.79;85.04;99809.87;1825621;78;27534;-70
2023/07/31 07:24:53;;;;;;;83.85;78.83;;;;;;;18.81;84.78;99806.16;1825622;78;25412;-70
2023/07/31 07:27:20;;;;;;;85.85;80.38;;;;;;;18.87;84.87;99808.03;1825702;78;25507;-70
2023/07/31 07:29:46;;;;;;;83.50;78.52;;;;;;;18.88;84.25;99811.73;1825614;78;26032;-70
2023/07/31 07:32:13;;;;;;;86.72;81.10;;;;;;;18.89;84.28;99820.17;1825706;78;25574;-72
2023/07/31 07:34:39;;;;;;;82.17;77.22;;;;;;;18.95;84.54;99819.23;1821909;78;27428;-71
2023/07/31 07:37:06;;;;;;;84.92;79.72;;;;;;;19.10;84.81;99827.02;1821853;78;25668;-71
2023/07/31 07:39:32;;;;;;;82.82;77.87;;;;;;;19.21;84.35;99818.31;1821926;78;25570;-72
2023/07/31 07:41:58;;;;;;;26.23;24.15;;;;;;;19.32;84.17;99815.05;1821888;78;25455;-72
2023/07/31 07:44:25;;;;;;;19.23;17.67;;;;;;;19.47;84.73;99824.19;1821957;78;25521;-72
2023/07/31 07:46:51;;;;;;;84.05;78.83;;;;;;;19.67;84.13;99815.72;1821928;78;27520;-72
2023/07/31 07:49:17;;;;;;;85.62;80.20;;;;;;;19.93;84.51;99823.72;1821847;78;25537;-72
2023/07/31 07:51:43;;;;;;;85.35;79.85;;;;;;;20.27;84.67;99817.22;1821929;78;25424;-72
2023/07/31 07:54:09;;;;;;;81.00;76.30;;;;;;;20.58;84.44;99811.63;1821911;78;26012;-71
2023/07/31 07:56:36;;;;;;;82.95;77.53;;;;;;;20.87;82.06;99811.14;1822038;78;25509;-72
2023/07/31 07:59:02;;;;;;;82.00;77.10;;;;;;;21.14;80.77;99809.38;1821943;78;27473;-72
2023/07/31 08:01:29;;;;;;;80.85;76.02;;;;;;;21.36;78.89;99810.77;1821821;78;25351;-71
2023/07/31 08:03:55;;;;;;;80.85;76.07;;;;;;;21.49;78.46;99809.21;1821897;78;25377;-72
2023/07/31 08:06:22;;;;;;;82.65;77.58;;;;;;;21.69;78.90;99815.08;1821883;78;25471;-71
2023/07/31 08:08:49;;;;;;;78.20;73.75;;;;;;;21.95;77.88;99819.34;1821946;78;25554;-71
2023/07/31 08:11:15;;;;;;;80.05;75.45;;;;;;;22.08;75.88;99814.77;1822095;78;26930;-71
2023/07/31 08:13:41;;;;;;;77.40;72.55;;;;;;;22.20;75.60;99814.31;1821945;78;25677;-71
2023/07/31 08:16:08;;;;;;;81.45;76.75;;;;;;;22.37;74.43;99819.59;1822151;78;25411;-72
2023/07/31 08:18:36;;;;;;;79.90;75.08;;;;;;;22.45;73.62;99817.00;1792141;78;26013;-71
2023/07/31 08:21:03;;;;;;;77.78;73.33;;;;;;;22.64;73.29;99806.66;1821969;78;25342;-71
2023/07/31 08:23:29;;;;;;;81.05;75.97;;;;;;;22.80;72.77;99806.97;1821925;78;27422;-71
2023/07/31 08:25:55;;;;;;;83.15;77.87;;;;;;;23.02;72.17;99807.59;1821846;78;25344;-73
2023/07/31 08:28:22;;;;;;;77.08;72.58;;;;;;;23.21;70.80;99805.52;1821913;78;25389;-71
2023/07/31 08:30:50;;;;;;;79.95;74.90;;;;;;;23.28;70.78;99808.98;1821857;78;26071;-72
2023/07/31 08:33:16;;;;;;;80.15;75.37;;;;;;;23.50;69.87;99803.27;1822864;78;25391;-71
2023/07/31 08:35:42;;;;;;;75.00;70.72;;;;;;;23.58;69.02;99802.02;1825632;78;28009;-71
2023/07/31 08:38:08;;;;;;;76.57;72.25;;;;;;;23.60;68.84;99803.77;1825588;78;25847;-71
2023/07/31 08:40:38;;;;;;;77.47;73.00;;;;;;;23.86;67.11;99805.09;1825708;78;25481;-71
2023/07/31 08:43:05;;;;;;;77.47;73.10;;;;;;;24.01;66.36;99813.23;1825672;78;25561;-71
2023/07/31 08:45:33;;;;;;;83.95;79.00;;;;;;;24.15;67.33;99801.22;1825832;78;25423;-71
2023/07/31 08:47:59;;;;;;;80.65;76.15;;;;;;;24.54;67.72;99801.30;1825820;78;27396;-71
2023/07/31 08:50:27;;;;;;;77.58;73.05;;;;;;;24.96;65.70;99799.91;1825802;78;25779;-72
2023/07/31 08:52:54;;;;;;;76.25;71.75;;;;;;;25.13;63.84;99793.11;1825880;78;25361;-72
2023/07/31 08:55:23;;;;;;;75.95;71.42;;;;;;;25.37;64.22;99788.98;1825784;78;25443;-72
2023/07/31 08:57:51;;;;;;;76.02;71.33;;;;;;;25.64;63.20;99788.30;1825811;78;25459;-71
2023/07/31 09:00:20;;;;;;;;;;;;;;;25.86;60.48;99795.60;1828544;78;27468;-72
2023/07/31 09:03:02;;;;;;;74.10;69.85;;;;;;;25.88;58.90;99795.15;1825886;78;25768;-71
2023/07/31 09:05:31;;;;;;;77.47;73.00;;;;;;;25.95;58.83;99795.64;1825877;78;25427;-71
2023/07/31 09:07:58;;;;;;;75.83;71.37;;;;;;;26.19;58.01;99791.59;1825931;78;25546;-72
2023/07/31 09:10:25;;;;;;;72.70;68.62;;;;;;;26.42;57.95;99796.23;1825895;78;25531;-72
2023/07/31 09:12:53;;;;;;;74.75;70.65;;;;;;;26.80;56.97;99801.95;1825922;78;27526;-72
2023/07/31 09:15:20;;;;;;;74.35;70.28;;;;;;;27.07;57.00;99789.83;1825873;78;25688;-72
2023/07/31 09:17:46;;;;;;;74.90;70.72;;;;;;;27.29;55.37;99794.27;1825212;78;25597;-72
2023/07/31 09:20:22;;;;;;;74.90;70.67;;;;;;;27.31;54.51;99790.44;1825791;78;26083;-72
2023/07/31 09:22:52;;;;;;;74.35;70.05;;;;;;;27.32;53.30;99787.84;1825755;78;25403;-73
2023/07/31 09:25:24;;;;;;;72.15;68.05;;;;;;;27.25;53.42;99786.00;1825811;78;27436;-72
2023/07/31 09:28:08;;;;;;;74.05;69.95;;;;;;;27.48;53.45;99791.19;1821416;78;25365;-72
2023/07/31 09:30:50;;;;;;;69.85;65.92;;;;;;;27.89;53.98;99789.09;1825824;78;25583;-72
2023/07/31 09:33:18;;;;;;;74.03;69.85;;;;;;;28.20;52.44;99786.47;1825153;78;25586;-72
2023/07/31 09:35:45;;;;;;;42.05;39.60;;;;;;;26.13;51.36;99430.90;1792593;78;25607;-71
2023/07/31 09:38:14;;;;;;;64.85;61.35;;;;;;;28.60;50.98;99779.87;1822017;78;27492;-71
2023/07/31 09:40:47;;;;;;;71.62;67.65;;;;;;;28.69;50.24;99780.63;1821903;78;25738;-70
2023/07/31 09:43:20;;;;;;;69.90;66.10;;;;;;;28.71;48.58;99787.11;1822042;78;25578;-71
2023/07/31 09:45:47;;;;;;;51.92;48.92;;;;;;;28.67;48.57;99785.83;1822069;78;25595;-72
2023/07/31 09:48:18;;;;;;;67.95;64.10;;;;;;;28.73;48.25;99784.06;1792022;78;25560;-71
2023/07/31 09:50:49;;;;;;;72.72;68.75;;;;;;;28.85;47.63;99779.71;1792044;78;27314;-71
2023/07/31 09:53:16;;;;;;;70.97;67.25;;;;;;;28.72;45.32;99786.66;1821953;78;25580;-71
2023/07/31 09:55:44;;;;;;;70.30;66.22;;;;;;;28.58;46.87;99789.91;1822112;78;25163;-71
2023/07/31 09:58:13;;;;;;;72.58;68.37;;;;;;;28.51;46.48;99788.87;1792102;78;26220;-71
2023/07/31 10:00:40;;;;;;;72.27;68.17;;;;;;;28.34;46.00;99785.25;1822095;78;25584;-71
2023/07/31 10:03:10;;;;;;;71.47;67.50;;;;;;;28.06;46.16;99795.97;1821999;78;27506;-71
2023/07/31 10:05:49;;;;;;;70.20;66.37;;;;;;;28.04;46.86;99790.86;1784532;78;25547;-72
2023/07/31 10:08:18;;;;;;;72.00;67.95;;;;;;;27.97;45.49;99786.13;1821682;78;25400;-71
2023/07/31 10:10:46;;;;;;;71.35;67.55;;;;;;;27.95;45.77;99785.95;1822117;78;26029;-73
2023/07/31 10:13:14;;;;;;;70.60;66.72;;;;;;;27.92;45.42;99784.08;1822101;78;25356;-72
2023/07/31 10:15:43;;;;;;;68.60;65.00;;;;;;;28.07;46.39;99780.25;1822204;78;27439;-72
2023/07/31 10:18:12;;;;;;;50.45;47.67;;;;;;;28.32;46.31;99784.31;1822242;78;25529;-73
2023/07/31 10:20:41;;;;;;;49.45;46.83;;;;;;;28.63;46.12;99783.78;1822316;78;25153;-73
2023/07/31 10:23:11;;;;;;;93.12;86.82;;;;;;;28.48;45.01;99784.19;1823340;78;25531;-73
2023/07/31 10:25:39;;;;;;;50.23;47.20;;;;;;;;;;1822771;78;25465;-74
2023/07/31 10:28:05;;;;;;;70.83;66.82;;;;;;;;;;1822077;78;27372;-74
2023/07/31 10:30:34;;;;;;;47.33;44.83;;;;;;;;;;1821953;78;25287;-73
2023/07/31 10:33:01;;;;;;;;;;;;;;;;;;1824730;78;25335;-72
2023/07/31 10:35:28;;;;;;;72.70;68.57;;;;;;;;;;1798813;78;26127;-72
2023/07/31 10:37:55;;;;;;;74.30;69.97;;;;;;;;;;1825832;78;25483;-73
2023/07/31 10:40:27;;;;;;;35.10;33.10;;;;;;;;;;1825825;78;27948;-73
2023/07/31 10:42:59;;;;;;;53.80;50.83;;;;;;;;;;1825672;78;25500;-74
2023/07/31 10:45:36;;;;;;;72.67;68.78;;;;;;;;;;1825488;78;25286;-74
2023/07/31 10:48:07;;;;;;;69.87;65.70;;;;;;;;;;1787799;80;26089;-73
2023/07/31 10:50:39;;;;;;;70.90;67.20;;;;;;;;;;1787887;80;25575;-74
2023/07/31 10:53:07;;;;;;;58.28;54.95;;;;;;;;;;1748838;80;27456;-75
2023/07/31 10:55:43;;;;;;;46.90;44.48;;;;;;;;;;1787788;80;25666;-75
2023/07/31 10:58:12;;;;;;;70.65;66.90;;;;;;;;;;1787773;80;25440;-75
2023/07/31 11:00:42;;;;;;;70.00;66.30;;;;;;;;;;1787755;80;26070;-73
2023/07/31 11:03:12;;;;;;;69.10;65.20;;;;;;;;;;1787811;80;25563;-70
2023/07/31 11:05:55;;;;;;;49.13;46.50;;;;;;;;;;1787714;80;27891;-70
2023/07/31 11:09:49;;;;;;;6.55;2.17;;;;;;;28.98;40.01;99776.30;1839743;77;25509;-68
2023/07/31 11:12:18;;;;;;;2.35;1.45;;;;;;;28.95;38.90;99777.19;1814741;79;25383;-68
2023/07/31 11:14:44;;;;;;;3.02;1.65;;;;;;;28.87;39.70;99784.21;1814742;79;27462;-68
2023/07/31 11:17:10;;;;;;;3.12;1.42;;;;;;;28.76;39.44;99781.78;1814599;79;25533;-68
2023/07/31 11:19:38;;;;;;;4.15;1.90;;;;;;;28.61;39.44;99768.93;1814675;79;25360;-68
2023/07/31 11:22:06;;;;;;;2.80;1.97;;;;;;;28.51;39.28;99780.52;1780386;79;25447;-68
2023/07/31 11:24:34;;;;;;;4.33;1.60;;;;;;;28.33;39.44;99776.11;1814787;79;25394;-68
2023/07/31 11:27:07;;;;;;;5.25;1.77;;;;;;;28.21;40.19;99776.27;1814675;79;27539;-69
2023/07/31 11:29:33;;;;;;;4.97;1.45;;;;;;;28.19;40.56;99775.94;1814507;79;25514;-67
2023/07/31 11:31:59;;;;;;;2.72;1.37;;;;;;;28.28;40.01;99776.66;1747790;82;25527;-68
2023/07/31 11:34:25;;;;;;;3.58;1.60;;;;;;;28.21;39.68;99777.66;1747760;82;25451;-67
2023/07/31 11:36:56;;;;;;;5.58;1.75;;;;;;;28.24;39.65;99770.45;1747828;82;25653;-67
2023/07/31 11:39:22;;;;;;;2.60;1.62;;;;;;;28.30;39.85;99773.63;1747859;82;28053;-66
2023/07/31 11:41:49;;;;;;;3.37;1.52;;;;;;;28.58;39.69;99778.78;1747742;82;25603;-68
2023/07/31 11:44:15;;;;;;;4.10;1.45;;;;;;;28.84;39.56;99766.42;1747871;82;25567;-68